Time;durP1;ratioP1;P1;durP2;ratioP2;P2;SDS_P1;SDS_P2;PMS_P1;PMS_P2;Temp;Humidity;BMP_temperature;BMP_pressure;BME280_temperature;BME280_humidity;BME280_pressure;Samples;Min_cycle;Max_cycle;Signal;HPM_P1;HPM_P2
2023/03/11 00:01:07;;;;;;;8.75;7.88;;;;;;;10.11;100.00;63043.03;5046259;28;20190;-78
2023/03/11 00:03:35;;;;;;;9.68;7.82;;;;;;;10.10;100.00;63039.97;5046382;28;20186;-80
2023/03/11 00:06:03;;;;;;;13.30;11.88;;;;;;;10.02;100.00;63028.63;5044551;28;20205;-79
2023/03/11 00:08:30;;;;;;;13.35;11.90;;;;;;;10.08;100.00;63039.91;5048606;28;20194;-79
2023/03/11 00:11:00;;;;;;;14.32;12.07;;;;;;;9.82;100.00;63010.47;5046435;28;20256;-79
2023/03/11 00:13:28;;;;;;;10.40;8.13;;;;;;;9.45;100.00;62969.66;5045367;28;20202;-78
2023/03/11 00:15:56;;;;;;;6.68;6.05;;;;;;;9.25;100.00;62952.56;5045838;28;20212;-78
2023/03/11 00:18:30;;;;;;;7.75;6.72;;;;;;;9.06;100.00;62932.41;5045652;28;20202;-81
2023/03/11 00:20:59;;;;;;;7.65;6.55;;;;;;;8.82;100.00;62905.56;5047037;28;20206;-80
2023/03/11 00:23:27;;;;;;;7.43;6.68;;;;;;;9.00;100.00;62926.72;5042660;28;20204;-80
2023/03/11 00:25:55;;;;;;;6.75;6.05;;;;;;;9.10;100.00;62936.53;5049231;28;20205;-78
2023/03/11 00:28:24;;;;;;;5.95;5.45;;;;;;;8.98;100.00;62924.66;5043469;28;20236;-79
2023/03/11 00:30:52;;;;;;;4.30;3.90;;;;;;;8.84;100.00;62907.66;5047278;28;20195;-80
2023/03/11 00:33:19;;;;;;;4.10;3.35;;;;;;;8.69;100.00;62897.22;5047646;28;20209;-81
2023/03/11 00:35:50;;;;;;;4.00;3.30;;;;;;;8.72;100.00;62900.31;5048385;28;20202;-79
2023/03/11 00:38:19;;;;;;;4.22;3.75;;;;;;;8.86;100.00;62914.78;5043028;28;20198;-80
2023/03/11 00:40:48;;;;;;;5.50;3.65;;;;;;;9.00;100.00;62926.72;5050468;28;20257;-79
2023/03/11 00:43:17;;;;;;;4.80;4.40;;;;;;;8.99;100.00;62923.16;5054006;28;20292;-80
2023/03/11 00:45:44;;;;;;;5.53;5.03;;;;;;;8.97;100.00;62926.16;5049187;28;20468;-80
2023/03/11 00:48:12;;;;;;;7.45;5.40;;;;;;;8.96;100.00;62922.59;5052289;28;20276;-81
2023/03/11 00:50:39;;;;;;;5.63;5.10;;;;;;;8.97;100.00;62923.09;5052345;28;20298;-80
2023/03/11 00:53:07;;;;;;;5.57;4.43;;;;;;;8.97;100.00;62923.09;5053167;28;20232;-82
2023/03/11 00:55:36;;;;;;;5.68;4.78;;;;;;;9.08;100.00;62934.47;5052167;28;20217;-81
2023/03/11 00:58:07;;;;;;;4.15;3.85;;;;;;;9.02;100.00;62928.81;5054003;28;20256;-80
2023/03/11 01:00:35;;;;;;;4.63;4.30;;;;;;;9.18;100.00;62942.28;5052362;28;20415;-79
2023/03/11 01:03:02;;;;;;;4.53;4.18;;;;;;;9.14;100.00;62943.75;5051138;28;20232;-78
2023/03/11 01:05:31;;;;;;;4.13;3.72;;;;;;;9.20;100.00;62946.88;5045994;28;20237;-79
2023/03/11 01:07:59;;;;;;;3.38;3.17;;;;;;;9.20;100.00;62946.88;5053166;28;20218;-80
2023/03/11 01:10:28;;;;;;;4.18;3.80;;;;;;;9.12;100.00;62936.59;5052333;28;20244;-79
2023/03/11 01:12:55;;;;;;;4.68;4.30;;;;;;;9.21;100.00;62945.38;5052115;28;20408;-79
2023/03/11 01:15:24;;;;;;;3.90;3.53;;;;;;;9.14;100.00;62936.13;5049827;28;20261;-80
2023/03/11 01:17:52;;;;;;;3.78;3.35;;;;;;;9.17;100.00;62946.31;5052807;28;20252;-81
2023/03/11 01:20:20;;;;;;;3.53;3.33;;;;;;;9.15;100.00;62942.22;5050741;28;20222;-79
2023/03/11 01:22:47;;;;;;;4.05;3.75;;;;;;;9.08;100.00;62934.47;5048070;28;20278;-79
2023/03/11 01:25:17;;;;;;;3.63;3.42;;;;;;;8.91;100.00;62917.44;5052340;28;20519;-79
2023/03/11 01:27:48;;;;;;;3.38;3.17;;;;;;;8.96;100.00;62925.13;5053959;28;20277;-80
2023/03/11 01:30:17;;;;;;;4.30;3.20;;;;;;;9.01;100.00;62924.69;5055255;28;20198;-80
2023/03/11 01:32:45;;;;;;;14.13;10.93;;;;;;;8.88;100.00;62911.78;5048654;28;20222;-81
2023/03/11 01:35:13;;;;;;;7.50;6.80;;;;;;;8.95;100.00;62921.56;5051857;28;20198;-81
2023/03/11 01:37:41;;;;;;;10.75;9.13;;;;;;;8.96;100.00;62922.06;5052267;28;20222;-81
2023/03/11 01:40:15;;;;;;;14.32;8.90;;;;;;;8.93;100.00;62921.50;5049959;28;20241;-80
2023/03/11 01:42:42;;;;;;;9.13;7.40;;;;;;;8.92;100.00;62915.41;5050901;28;20221;-80
2023/03/11 01:45:33;;;;;;;8.05;6.82;;;;;;;8.91;100.00;62916.91;5051664;28;20229;-81
2023/03/11 01:48:01;;;;;;;6.78;5.95;;;;;;;8.89;100.00;62917.88;5054276;28;20223;-80
2023/03/11 01:50:35;;;;;;;6.03;5.43;;;;;;;8.67;100.00;62892.63;5048140;28;20197;-81
2023/03/11 01:53:02;;;;;;;6.53;5.82;;;;;;;8.50;100.00;62874.53;5049835;28;20218;-80
2023/03/11 01:55:33;;;;;;;8.13;7.32;;;;;;;8.58;100.00;62882.78;5051123;28;20197;-80
2023/03/11 01:58:04;;;;;;;376.60;35.25;;;;;;;8.24;100.00;62850.22;5041679;28;20214;-79
2023/03/11 02:00:34;;;;;;;3.50;3.30;;;;;;;7.97;100.00;62823.34;5050655;28;20200;-80
2023/03/11 02:03:07;;;;;;;3.20;2.90;;;;;;;8.08;100.00;62831.66;5037719;28;20244;-79
2023/03/11 02:05:35;;;;;;;3.03;2.83;;;;;;;8.13;100.00;62836.81;5051223;28;20228;-80
2023/03/11 02:08:03;;;;;;;2.28;2.10;;;;;;;8.14;100.00;62838.34;5049329;28;20237;-78
2023/03/11 02:10:31;;;;;;;2.20;2.10;;;;;;;8.14;100.00;62835.31;5051324;28;20694;-81
2023/03/11 02:12:58;;;;;;;4.38;3.97;;;;;;;8.04;100.00;62825.00;5050688;28;20244;-82
2023/03/11 02:15:26;;;;;;;4.25;3.88;;;;;;;8.15;100.00;62836.34;5053642;28;20199;-81
2023/03/11 02:17:55;;;;;;;11.20;5.45;;;;;;;8.26;100.00;62845.19;5053204;28;20217;-81
2023/03/11 02:20:32;;;;;;;6.50;5.88;;;;;;;8.40;100.00;62864.22;5049434;28;20432;-80
2023/03/11 02:23:02;;;;;;;6.72;6.05;;;;;;;8.41;100.00;62867.78;5045018;28;20214;-80
2023/03/11 02:25:36;;;;;;;12.32;6.15;;;;;;;8.53;100.00;62875.09;5047471;28;20280;-81
2023/03/11 02:28:08;;;;;;;8.68;7.75;;;;;;;8.61;100.00;62886.41;5049686;28;20284;-80
2023/03/11 02:30:36;;;;;;;9.55;8.52;;;;;;;8.66;100.00;62891.06;5047758;28;20208;-81
2023/03/11 02:33:04;;;;;;;10.20;9.20;;;;;;;8.76;100.00;62901.41;5053548;28;20222;-81
2023/03/11 02:35:31;;;;;;;8.73;7.85;;;;;;;8.71;100.00;62893.69;5048368;28;20233;-81
2023/03/11 02:37:58;;;;;;;8.77;7.97;;;;;;;8.63;100.00;62885.44;5033530;28;20226;-81
2023/03/11 02:40:41;;;;;;;11.30;8.15;;;;;;;8.73;100.00;62896.28;5043538;28;20217;-80
2023/03/11 02:43:13;;;;;;;8.90;8.07;;;;;;;8.78;100.00;62900.94;5048906;28;20213;-82
2023/03/11 02:45:43;;;;;;;9.88;7.78;;;;;;;8.73;100.00;62893.22;5049792;28;20222;-81
2023/03/11 02:48:11;;;;;;;11.55;9.82;;;;;;;8.61;100.00;62886.41;5050516;28;20227;-83
2023/03/11 02:50:40;;;;;;;12.82;10.20;;;;;;;8.69;100.00;62892.16;5052264;28;20266;-81
2023/03/11 02:53:07;;;;;;;11.85;10.30;;;;;;;8.71;100.00;62896.25;5039108;28;20234;-81
2023/03/11 02:55:34;;;;;;;13.05;10.43;;;;;;;8.76;100.00;62898.88;5049170;28;20202;-82
2023/03/11 02:58:01;;;;;;;13.65;10.90;;;;;;;8.54;100.00;62881.72;5045946;28;20293;-82
2023/03/11 03:00:31;;;;;;;15.82;11.60;;;;;;;8.67;100.00;62889.56;5041703;28;20221;-82
2023/03/11 03:02:58;;;;;;;13.57;10.55;;;;;;;8.73;100.00;62896.28;5053435;28;20295;-81
2023/03/11 03:05:25;;;;;;;10.00;9.00;;;;;;;8.72;100.00;62897.78;5049682;28;20226;-81
2023/03/11 03:07:52;;;;;;;9.13;8.00;;;;;;;8.79;100.00;62904.50;5039169;28;20218;-81
2023/03/11 03:10:21;;;;;;;7.47;6.80;;;;;;;8.69;100.00;62891.63;5048934;28;20198;-81
2023/03/11 03:12:48;;;;;;;6.60;6.00;;;;;;;8.74;100.00;62902.41;5047745;28;20578;-81
2023/03/11 03:15:15;;;;;;;5.78;4.20;;;;;;;8.68;100.00;62891.09;5050230;28;20194;-81
2023/03/11 03:17:45;;;;;;;4.65;4.30;;;;;;;8.71;100.00;62896.75;5054204;28;20229;-79
2023/03/11 03:20:13;;;;;;;1.10;1.10;;;;;;;8.75;100.00;62900.88;5044199;28;20234;-79
2023/03/11 03:22:40;;;;;;;0.77;0.77;;;;;;;8.94;100.00;62920.50;5038765;28;20232;-79
2023/03/11 03:25:08;;;;;;;0.80;0.80;;;;;;;9.01;100.00;62927.75;5047932;28;20237;-81
2023/03/11 03:37:42;;;;;;;0.40;0.40;;;;;;;9.23;100.00;62947.44;5044124;28;20297;-79
2023/03/11 03:40:11;;;;;;;0.20;0.20;;;;;;;9.25;100.00;62955.09;5045481;28;20229;-79
2023/03/11 03:42:39;;;;;;;0.10;0.10;;;;;;;9.29;100.00;62954.16;5044413;28;20229;-76
2023/03/11 03:45:08;;;;;;;0.30;0.30;;;;;;;9.52;100.00;62979.97;5038843;28;20221;-77
2023/03/11 03:47:36;;;;;;;0.40;0.40;;;;;;;9.50;100.00;62980.44;5047713;28;20241;-79
2023/03/11 03:50:04;;;;;;;0.40;0.40;;;;;;;9.41;100.00;62968.59;5046265;28;20214;-79
2023/03/11 03:52:31;;;;;;;1.10;1.10;;;;;;;9.46;100.00;62973.75;5043838;28;20523;-77
2023/03/11 03:54:59;;;;;;;0.30;0.30;;;;;;;9.54;100.00;62976.44;5044976;28;20186;-77
2023/03/11 03:57:26;;;;;;;0.10;0.10;;;;;;;9.66;100.00;62993.94;5045629;28;20222;-78
2023/03/11 03:59:53;;;;;;;0.20;0.20;;;;;;;9.54;100.00;62979.50;5044005;28;20406;-79
2023/03/11 04:02:20;;;;;;;0.40;0.40;;;;;;;9.55;100.00;62985.59;5043662;28;20249;-78
2023/03/11 04:04:47;;;;;;;0.15;0.15;;;;;;;9.61;100.00;62986.72;5044726;28;20202;-78
2023/03/11 04:07:14;;;;;;;0.15;0.13;;;;;;;9.63;100.00;62990.84;5046460;28;20268;-77
2023/03/11 04:09:42;;;;;;;0.35;0.20;;;;;;;9.65;100.00;62990.34;5042938;28;20411;-78
2023/03/11 04:12:14;;;;;;;0.52;0.30;;;;;;;9.66;100.00;62997.00;5043888;28;20447;-77
2023/03/11 04:14:41;;;;;;;0.40;0.40;;;;;;;9.74;100.00;62999.66;5043081;28;20220;-77
2023/03/11 04:17:10;;;;;;;0.35;0.35;;;;;;;9.70;100.00;63001.13;5044174;28;20224;-78
2023/03/11 04:19:37;;;;;;;0.22;0.17;;;;;;;9.67;100.00;62998.00;5043885;28;20210;-78
2023/03/11 04:22:04;;;;;;;0.35;0.20;;;;;;;9.72;100.00;63005.22;5043029;28;20221;-77
2023/03/11 04:24:31;;;;;;;1.63;0.22;;;;;;;9.72;100.00;63000.13;5044822;28;20198;-78
2023/03/11 04:26:58;;;;;;;0.10;0.10;;;;;;;9.72;100.00;62998.09;5034208;28;20230;-77
2023/03/11 04:29:26;;;;;;;1.75;0.40;;;;;;;9.72;100.00;62997.59;5036885;28;20329;-77
2023/03/11 04:31:53;;;;;;;0.43;0.30;;;;;;;9.77;100.00;63000.22;5043932;28;20271;-76
2023/03/11 04:34:20;;;;;;;0.68;0.52;;;;;;;9.70;100.00;63000.63;5043871;28;20202;-78
2023/03/11 04:36:47;;;;;;;0.20;0.20;;;;;;;9.65;100.00;62993.41;5042611;28;20218;-77
2023/03/11 04:39:15;;;;;;;0.17;0.15;;;;;;;9.60;100.00;62990.25;5044505;28;20252;-78
2023/03/11 04:41:42;;;;;;;0.20;0.20;;;;;;;9.53;100.00;62980.47;5046071;28;20221;-77
2023/03/11 04:44:09;;;;;;;0.38;0.38;;;;;;;9.50;100.00;62980.44;5044118;28;20222;-78
2023/03/11 04:46:37;;;;;;;0.30;0.30;;;;;;;9.61;100.00;62989.25;5042267;28;20245;-77
2023/03/11 04:49:04;;;;;;;0.40;0.40;;;;;;;9.63;100.00;62990.84;5041368;28;20207;-77
2023/03/11 04:51:31;;;;;;;2.47;1.40;;;;;;;9.56;100.00;62981.56;5044792;28;20228;-78
2023/03/11 04:53:58;;;;;;;1.50;1.50;;;;;;;9.41;100.00;62973.66;5046523;28;20268;-77
2023/03/11 04:56:25;;;;;;;2.10;1.92;;;;;;;9.42;100.00;62969.63;5040788;28;20340;-77
2023/03/11 04:58:52;;;;;;;2.17;1.65;;;;;;;9.39;100.00;62963.97;5046023;28;20261;-79
2023/03/11 05:01:18;;;;;;;2.20;2.10;;;;;;;9.19;100.00;62943.31;5042953;28;20511;-78
2023/03/11 05:03:47;;;;;;;1.10;1.10;;;;;;;9.27;100.00;62951.56;5040843;28;20455;-79
2023/03/11 05:06:14;;;;;;;1.38;1.38;;;;;;;9.27;100.00;62951.56;5038144;28;20241;-78
2023/03/11 05:08:41;;;;;;;1.40;1.40;;;;;;;9.35;100.00;62965.44;5045770;28;20222;-78
2023/03/11 05:11:08;;;;;;;0.70;0.70;;;;;;;9.46;100.00;62973.25;5048009;28;20202;-78
2023/03/11 05:13:35;;;;;;;0.63;0.63;;;;;;;9.65;100.00;62990.34;5044041;28;20198;-80
2023/03/11 05:16:02;;;;;;;0.55;0.50;;;;;;;9.74;100.00;62999.66;5045554;28;20198;-79
2023/03/11 05:18:30;;;;;;;0.30;0.30;;;;;;;9.89;99.72;63020.25;5045232;28;20197;-79
2023/03/11 05:20:59;;;;;;;0.40;0.40;;;;;;;9.96;99.73;63019.84;5045701;28;20206;-79
2023/03/11 05:23:26;;;;;;;0.63;0.63;;;;;;;9.96;98.71;63027.50;5044305;28;20202;-80
2023/03/11 05:25:53;;;;;;;1.00;1.00;;;;;;;10.04;99.97;63031.19;5047224;28;20232;-77
2023/03/11 05:28:20;;;;;;;0.82;0.55;;;;;;;10.00;99.29;63029.63;5048864;28;20209;-78
2023/03/11 05:30:46;;;;;;;0.30;0.30;;;;;;;10.03;98.16;63032.72;5047707;28;20198;-78
2023/03/11 05:33:13;;;;;;;0.50;0.50;;;;;;;10.11;97.83;63043.53;5048783;28;20218;-79
2023/03/11 05:35:41;;;;;;;0.40;0.40;;;;;;;10.15;97.34;63047.16;5048824;28;20225;-79
2023/03/11 05:38:09;;;;;;;0.20;0.20;;;;;;;10.11;99.29;63040.50;5049088;28;20221;-80
2023/03/11 05:40:36;;;;;;;1.35;0.50;;;;;;;10.11;99.78;63040.50;5046557;28;20260;-80
2023/03/11 05:43:04;;;;;;;0.40;0.40;;;;;;;10.17;99.30;63047.22;5049331;28;20268;-80
2023/03/11 05:45:31;;;;;;;1.25;0.45;;;;;;;10.17;98.86;63041.59;5050187;28;20229;-80
2023/03/11 05:47:57;;;;;;;0.35;0.35;;;;;;;10.19;100.00;63048.78;5050413;28;20229;-81
2023/03/11 05:50:25;;;;;;;0.50;0.47;;;;;;;10.27;100.00;63057.56;5044845;28;20220;-78
2023/03/11 05:52:52;;;;;;;0.52;0.52;;;;;;;10.27;100.00;63054.50;5046573;28;20251;-78
2023/03/11 05:55:23;;;;;;;0.32;0.32;;;;;;;10.25;100.00;63054.97;5050384;28;20229;-80
2023/03/11 05:57:52;;;;;;;0.47;0.40;;;;;;;10.28;100.00;63058.09;5048572;28;20217;-78
2023/03/11 06:00:21;;;;;;;0.50;0.50;;;;;;;10.27;100.00;63059.59;5049705;28;20214;-80
2023/03/11 06:02:48;;;;;;;0.40;0.40;;;;;;;10.23;100.00;63055.97;5050637;28;20221;-80
2023/03/11 06:05:15;;;;;;;0.45;0.45;;;;;;;10.27;100.00;63057.03;5047619;28;20202;-78
2023/03/11 06:07:42;;;;;;;0.57;0.57;;;;;;;10.29;100.00;63057.09;5049313;28;20221;-79
2023/03/11 06:10:10;;;;;;;0.50;0.50;;;;;;;10.32;100.00;63062.72;5050227;28;20204;-77
2023/03/11 06:12:39;;;;;;;1.40;1.30;;;;;;;10.17;100.00;63044.66;5047684;28;20256;-77
2023/03/11 06:15:07;;;;;;;0.90;0.68;;;;;;;10.30;100.00;63060.66;5047884;28;20252;-80
2023/03/11 06:17:35;;;;;;;0.85;0.80;;;;;;;10.35;100.00;63068.38;5047683;28;20229;-78
2023/03/11 06:20:04;;;;;;;0.95;0.90;;;;;;;10.36;100.00;63066.34;5048025;28;20218;-79
2023/03/11 06:22:31;;;;;;;0.75;0.75;;;;;;;10.47;100.00;63077.75;5052192;28;20225;-79
2023/03/11 06:24:58;;;;;;;0.40;0.40;;;;;;;10.56;100.00;63084.00;5046530;28;20206;-79
2023/03/11 06:27:26;;;;;;;0.68;0.68;;;;;;;10.54;100.00;63087.03;5047945;28;20268;-79
2023/03/11 06:29:55;;;;;;;0.63;0.63;;;;;;;10.59;100.00;63087.09;5046527;28;20197;-79
2023/03/11 06:32:21;;;;;;;0.50;0.50;;;;;;;10.63;99.41;63094.28;5048265;28;20233;-79
2023/03/11 06:34:51;;;;;;;1.23;0.88;;;;;;;10.64;96.34;63095.34;5047018;28;20266;-79
2023/03/11 06:37:19;;;;;;;0.60;0.60;;;;;;;10.66;98.83;63096.88;5047140;28;20294;-79
2023/03/11 06:39:47;;;;;;;0.90;0.90;;;;;;;10.68;96.34;63102.03;5046501;28;20202;-78
2023/03/11 06:42:14;;;;;;;0.95;0.90;;;;;;;10.63;96.76;63099.38;5046931;28;20213;-78
2023/03/11 06:44:41;;;;;;;1.00;1.00;;;;;;;10.58;96.95;63091.16;5045801;28;20206;-79
2023/03/11 06:47:09;;;;;;;3.22;1.30;;;;;;;10.56;96.53;63092.13;5046375;28;20238;-78
2023/03/11 06:49:39;;;;;;;0.82;0.68;;;;;;;10.41;96.91;63071.53;5047813;28;20256;-78
2023/03/11 06:52:07;;;;;;;0.90;0.90;;;;;;;10.45;97.09;63080.75;5047189;28;20234;-79
2023/03/11 06:54:34;;;;;;;2.00;1.00;;;;;;;10.59;96.02;63090.16;5045119;28;20253;-79
2023/03/11 06:57:01;;;;;;;1.35;0.90;;;;;;;10.64;96.82;63097.88;5043687;28;20277;-79
2023/03/11 06:59:28;;;;;;;0.80;0.80;;;;;;;10.66;96.60;63096.88;5042750;28;20228;-78
2023/03/11 07:01:55;;;;;;;0.55;0.55;;;;;;;10.71;95.39;63100.03;5047630;28;20241;-79
2023/03/11 07:04:24;;;;;;;1.00;0.60;;;;;;;10.78;93.05;63106.75;5048099;28;20232;-80
2023/03/11 07:06:51;;;;;;;1.13;0.95;;;;;;;10.84;92.30;63115.50;5045248;28;20241;-81
2023/03/11 07:09:21;;;;;;;0.40;0.40;;;;;;;10.72;92.65;63100.53;5048134;28;20225;-80
2023/03/11 07:11:47;;;;;;;0.38;0.38;;;;;;;10.85;94.08;63117.09;5049390;28;20225;-80
2023/03/11 07:14:17;;;;;;;0.30;0.30;;;;;;;10.84;93.77;63118.59;5049039;28;20209;-79
2023/03/11 07:16:45;;;;;;;0.73;0.73;;;;;;;10.99;94.89;63131.06;5047873;28;20277;-79
2023/03/11 07:19:12;;;;;;;0.98;0.85;;;;;;;11.06;94.08;63138.31;5048448;28;20289;-81
2023/03/11 07:21:42;;;;;;;2.55;1.75;;;;;;;11.22;95.65;63155.38;5049135;28;20218;-80
2023/03/11 07:24:12;;;;;;;3.58;1.77;;;;;;;11.35;92.52;63173.97;5036646;28;20236;-80
2023/03/11 07:26:39;;;;;;;1.48;1.20;;;;;;;11.40;88.12;63171.50;5037610;28;20244;-78
2023/03/11 07:29:05;;;;;;;1.50;0.70;;;;;;;11.41;86.64;63177.09;5036659;28;20198;-80
2023/03/11 07:31:34;;;;;;;1.77;0.82;;;;;;;11.37;83.62;63172.97;5050144;28;20221;-78
2023/03/11 07:34:02;;;;;;;1.25;0.90;;;;;;;11.33;85.03;63163.72;5039127;28;20209;-79
2023/03/11 07:36:30;;;;;;;1.20;1.10;;;;;;;11.53;84.84;63189.53;5050728;28;20272;-79
2023/03/11 07:39:02;;;;;;;1.50;0.90;;;;;;;11.58;81.67;63195.22;5047703;28;20198;-79
2023/03/11 07:41:30;;;;;;;0.80;0.80;;;;;;;11.68;80.89;63202.53;5047594;28;20233;-79
2023/03/11 07:43:58;;;;;;;0.50;0.50;;;;;;;11.69;79.76;63206.13;5047104;28;20202;-79
2023/03/11 07:46:27;;;;;;;0.40;0.40;;;;;;;11.66;80.21;63205.56;5049500;28;20549;-78
2023/03/11 07:48:55;;;;;;;0.50;0.50;;;;;;;11.41;83.63;63175.06;5048216;28;20261;-81
2023/03/11 07:51:24;;;;;;;0.70;0.70;;;;;;;11.64;85.28;63200.94;5050329;28;20422;-80
2023/03/11 07:53:52;;;;;;;0.70;0.70;;;;;;;11.80;72.57;63217.53;5046103;28;20244;-79
2023/03/11 07:56:22;;;;;;;0.80;0.80;;;;;;;11.94;68.09;63223.84;5042573;28;20257;-79
2023/03/11 07:58:50;;;;;;;1.10;0.75;;;;;;;12.01;65.88;63239.28;5044683;28;20217;-77
2023/03/11 08:01:19;;;;;;;0.85;0.70;;;;;;;12.04;67.60;63242.41;5041727;28;20246;-80
2023/03/11 08:03:48;;;;;;;1.48;0.90;;;;;;;12.09;69.74;63244.50;5040812;28;20269;-80
2023/03/11 08:06:17;;;;;;;1.15;0.98;;;;;;;12.17;66.26;63252.78;5042245;28;20241;-80
2023/03/11 08:08:44;;;;;;;0.60;0.60;;;;;;;12.20;61.94;63256.41;5043756;28;20198;-81
2023/03/11 08:11:13;;;;;;;0.70;0.70;;;;;;;12.25;61.70;63264.16;5044203;28;20221;-78
2023/03/11 08:13:41;;;;;;;0.85;0.70;;;;;;;12.29;61.92;63263.19;5047022;28;20509;-78
2023/03/11 08:16:10;;;;;;;0.63;0.63;;;;;;;12.39;59.56;63281.22;5042804;28;20514;-79
2023/03/11 08:18:37;;;;;;;2.78;0.77;;;;;;;12.44;60.65;63280.78;5047971;28;20237;-79
2023/03/11 08:21:05;;;;;;;1.45;1.05;;;;;;;12.49;60.99;63288.53;5045111;28;20289;-80
2023/03/11 08:23:32;;;;;;;2.00;1.25;;;;;;;12.43;58.07;63280.25;5046783;28;20189;-78
2023/03/11 08:25:58;;;;;;;2.50;1.00;;;;;;;12.44;59.53;63278.75;5048610;28;20507;-82
2023/03/11 08:28:25;;;;;;;1.70;0.73;;;;;;;12.49;61.07;63285.97;5044940;28;20198;-83
2023/03/11 08:30:54;;;;;;;1.38;0.85;;;;;;;12.67;61.36;63304.63;5048641;28;20206;-82
2023/03/11 08:33:21;;;;;;;1.00;0.75;;;;;;;12.64;61.83;63301.53;5047444;28;20202;-80
2023/03/11 08:35:48;;;;;;;1.63;1.13;;;;;;;12.71;59.92;63308.78;5047983;28;20257;-80
2023/03/11 08:38:15;;;;;;;0.85;0.80;;;;;;;12.69;59.35;63307.22;5045730;28;20226;-79
2023/03/11 08:40:42;;;;;;;0.93;0.93;;;;;;;12.62;58.71;63302.53;5030035;28;20261;-79
2023/03/11 08:43:12;;;;;;;3.10;1.10;;;;;;;12.63;59.28;63303.03;5031433;28;20226;-81
2023/03/11 08:45:39;;;;;;;1.33;1.23;;;;;;;12.60;56.27;63299.91;5028924;28;20234;-80
2023/03/11 08:48:11;;;;;;;1.13;1.02;;;;;;;12.71;56.58;63306.22;5044419;28;20271;-78
2023/03/11 08:50:41;;;;;;;1.00;1.00;;;;;;;12.87;55.82;63324.84;5048886;28;20192;-82
2023/03/11 08:53:08;;;;;;;0.80;0.80;;;;;;;12.90;55.62;63325.94;5048082;28;20213;-78
2023/03/11 08:55:35;;;;;;;1.02;1.02;;;;;;;12.93;56.22;63331.59;5045562;28;20240;-80
2023/03/11 08:58:02;;;;;;;1.70;0.85;;;;;;;13.05;55.08;63344.06;5040244;28;20434;-80
2023/03/11 09:00:29;;;;;;;0.60;0.60;;;;;;;12.97;55.65;63337.78;5051971;28;20225;-82
2023/03/11 09:02:56;;;;;;;0.68;0.68;;;;;;;13.05;54.78;63346.09;5051588;28;20462;-81
2023/03/11 09:05:24;;;;;;;0.30;0.30;;;;;;;13.13;53.78;63351.84;5051149;28;20383;-82
2023/03/11 09:07:51;;;;;;;0.93;0.70;;;;;;;13.10;55.03;63356.41;5049220;28;20239;-79
2023/03/11 09:10:18;;;;;;;1.98;0.93;;;;;;;13.27;55.23;63366.88;5051283;28;20201;-79
2023/03/11 09:12:45;;;;;;;0.75;0.55;;;;;;;13.42;54.08;63387.56;5052205;28;20213;-81
2023/03/11 09:15:12;;;;;;;1.10;0.57;;;;;;;13.18;54.39;63357.03;5049087;28;20390;-79
2023/03/11 09:17:39;;;;;;;1.05;0.60;;;;;;;13.24;55.33;63361.22;5054136;28;20222;-82
2023/03/11 09:20:07;;;;;;;0.65;0.60;;;;;;;13.07;56.16;63345.59;5051121;28;20205;-82
2023/03/11 09:22:36;;;;;;;0.40;0.40;;;;;;;12.76;59.88;63314.47;5050282;28;20396;-81
2023/03/11 09:25:02;;;;;;;0.88;0.88;;;;;;;13.03;60.86;63339.41;5047961;28;20272;-81
2023/03/11 09:27:29;;;;;;;0.63;0.63;;;;;;;13.20;64.28;63359.09;5051565;28;20234;-80
2023/03/11 09:29:56;;;;;;;1.63;0.60;;;;;;;12.93;66.64;63331.59;5051586;28;20479;-79
2023/03/11 09:32:23;;;;;;;1.77;0.90;;;;;;;12.92;58.96;63330.03;5050559;28;20226;-79
2023/03/11 09:34:50;;;;;;;3.22;0.80;;;;;;;12.54;61.97;63294.22;5053989;28;20217;-81
2023/03/11 09:37:18;;;;;;;1.10;1.02;;;;;;;12.55;59.23;63290.16;5041031;28;20242;-79
2023/03/11 09:39:46;;;;;;;1.42;1.33;;;;;;;12.82;55.86;63322.75;5032829;28;20278;-81
2023/03/11 09:42:20;;;;;;;1.98;0.80;;;;;;;13.03;52.73;63341.97;5051715;28;20537;-78
2023/03/11 09:44:57;;;;;;;0.63;0.63;;;;;;;13.19;52.67;63360.63;5052010;28;20206;-81
2023/03/11 09:47:49;;;;;;;3.15;1.25;;;;;;;13.35;54.77;63382.34;5050952;28;20249;-81
2023/03/11 09:50:23;;;;;;;0.90;0.90;;;;;;;13.64;55.97;63405.28;5051358;28;20266;-81
2023/03/11 09:53:04;;;;;;;0.88;0.88;;;;;;;13.90;51.63;63432.25;5053464;28;20225;-79
2023/03/11 09:55:38;;;;;;;0.73;0.73;;;;;;;14.11;51.61;63456.09;5051496;28;20186;-81
2023/03/11 09:58:12;;;;;;;1.63;0.80;;;;;;;14.06;50.36;63448.34;5051910;28;20212;-82
2023/03/11 10:00:40;;;;;;;1.58;0.90;;;;;;;14.15;51.66;63454.63;5050256;28;20212;-81
2023/03/11 10:03:18;;;;;;;1.08;0.90;;;;;;;14.18;50.69;63465.41;5037334;28;20241;-82
2023/03/11 10:05:46;;;;;;;0.80;0.80;;;;;;;13.92;49.81;63433.81;5050715;28;20462;-81
2023/03/11 10:08:23;;;;;;;0.88;0.88;;;;;;;13.49;53.07;63389.19;5048887;28;20233;-80
2023/03/11 10:11:01;;;;;;;1.92;0.93;;;;;;;13.46;53.45;63386.09;5042331;28;20269;-82
2023/03/11 10:13:35;;;;;;;1.42;0.80;;;;;;;13.60;53.12;63400.59;5039279;28;20569;-83
2023/03/11 10:16:12;;;;;;;2.13;0.88;;;;;;;13.71;51.24;63407.44;5049484;28;20190;-79
2023/03/11 10:18:53;;;;;;;0.90;0.90;;;;;;;13.72;52.01;63411.00;5048202;28;20239;-79
2023/03/11 10:21:33;;;;;;;1.63;0.93;;;;;;;13.72;52.92;63416.13;5048102;28;20218;-82
2023/03/11 10:24:14;;;;;;;1.33;0.70;;;;;;;13.81;53.74;63427.50;5049970;28;20194;-79
2023/03/11 10:26:47;;;;;;;4.13;0.93;;;;;;;13.77;53.59;63418.25;5048145;28;20221;-80
2023/03/11 10:29:20;;;;;;;0.73;0.70;;;;;;;13.93;53.21;63437.41;5051576;28;20202;-78
2023/03/11 10:31:58;;;;;;;1.45;1.00;;;;;;;14.09;50.54;63448.91;5049508;28;20210;-79
2023/03/11 10:34:31;;;;;;;2.42;0.80;;;;;;;14.28;51.00;63470.69;5046238;28;20205;-81
2023/03/11 10:37:03;;;;;;;2.08;0.82;;;;;;;14.50;50.76;63494.06;5044605;28;20229;-81
2023/03/11 10:39:32;;;;;;;1.08;0.80;;;;;;;14.66;52.05;63510.69;5050857;28;20198;-80
2023/03/11 10:42:03;;;;;;;1.20;0.80;;;;;;;14.71;51.27;63515.34;5051094;28;20427;-79
2023/03/11 10:44:34;;;;;;;0.80;0.80;;;;;;;14.45;51.27;63486.31;5044383;28;20224;-80
2023/03/11 10:47:01;;;;;;;0.70;0.70;;;;;;;14.39;50.02;63482.13;5052344;28;20225;-79
2023/03/11 10:49:29;;;;;;;0.90;0.90;;;;;;;14.53;49.90;63494.09;5050642;28;20200;-82
2023/03/11 10:51:56;;;;;;;1.08;0.90;;;;;;;14.20;52.37;63462.91;5048554;28;20213;-80
2023/03/11 10:54:27;;;;;;;1.85;0.63;;;;;;;13.93;53.17;63434.34;5047781;28;20197;-81
2023/03/11 10:56:59;;;;;;;3.40;1.05;;;;;;;13.53;55.77;63393.34;5048534;28;20202;-83
2023/03/11 10:59:30;;;;;;;2.95;1.27;;;;;;;13.26;63.25;63362.75;5050174;28;20212;-81
2023/03/11 11:02:00;;;;;;;0.70;0.70;;;;;;;12.75;69.02;63315.50;5046511;28;20233;-81
2023/03/11 11:04:30;;;;;;;1.00;1.00;;;;;;;12.50;75.54;63287.00;5045913;28;20194;-80
2023/03/11 11:06:58;;;;;;;1.05;0.90;;;;;;;12.08;78.90;63241.44;5047652;28;20213;-79
2023/03/11 11:09:29;;;;;;;1.38;0.88;;;;;;;11.84;82.28;63216.56;5048385;28;20432;-81
2023/03/11 11:12:07;;;;;;;0.88;0.88;;;;;;;11.73;82.63;63207.19;5045813;28;20597;-80
2023/03/11 11:14:47;;;;;;;1.10;0.98;;;;;;;11.80;84.01;63211.91;5048866;28;20205;-80
2023/03/11 11:17:18;;;;;;;1.02;1.02;;;;;;;11.81;89.29;63218.03;5047546;28;20245;-80
2023/03/11 11:19:46;;;;;;;4.57;1.33;;;;;;;11.83;94.50;63220.63;5046639;28;20217;-81
2023/03/11 11:22:17;;;;;;;2.75;1.00;;;;;;;11.85;93.63;63220.16;5048283;28;20230;-81
2023/03/11 11:24:46;;;;;;;0.63;0.63;;;;;;;11.91;92.77;63221.25;5049663;28;20240;-80
2023/03/11 11:27:17;;;;;;;4.25;1.35;;;;;;;11.92;90.96;63226.88;5050914;28;20292;-81
2023/03/11 11:29:47;;;;;;;1.58;1.38;;;;;;;11.90;91.61;63227.88;5050883;28;20210;-80
2023/03/11 11:32:24;;;;;;;1.20;1.20;;;;;;;12.04;94.55;63242.41;5051549;28;20245;-83
2023/03/11 11:34:58;;;;;;;1.63;1.52;;;;;;;12.01;92.93;63236.22;5051228;28;20202;-81
2023/03/11 11:37:30;;;;;;;4.70;1.17;;;;;;;12.05;88.31;63243.44;5047670;28;20220;-80
2023/03/11 11:40:00;;;;;;;3.88;1.92;;;;;;;12.34;94.99;63270.94;5046407;28;20209;-80
2023/03/11 11:42:31;;;;;;;2.03;1.20;;;;;;;12.71;93.55;63306.22;5050610;28;20218;-80
2023/03/11 11:45:04;;;;;;;2.17;1.30;;;;;;;13.10;82.57;63349.25;5051316;28;20206;-80
2023/03/11 11:47:35;;;;;;;1.23;1.13;;;;;;;13.56;74.95;63391.34;5047324;28;20240;-80
2023/03/11 11:50:06;;;;;;;1.20;1.00;;;;;;;13.64;70.26;63405.28;5050009;28;20201;-80